Time;durP1;ratioP1;P1;durP2;ratioP2;P2;SDS_P1;SDS_P2;PMS_P1;PMS_P2;Temp;Humidity;BMP_temperature;BMP_pressure;BME280_temperature;BME280_humidity;BME280_pressure;Samples;Min_cycle;Max_cycle;Signal;HPM_P1;HPM_P2
2023/03/28 00:01:48;;;;;;;8.50;2.00;;;;;;;;;;4943141;28;20284;-67
2023/03/28 00:04:13;;;;;;;8.10;2.17;;;;;;;;;;4924699;28;20229;-65
2023/03/28 00:06:40;;;;;;;9.47;2.00;;;;;;;;;;4942103;28;20716;-67
2023/03/28 00:09:05;;;;;;;6.67;2.00;;;;;;;;;;4936953;28;21424;-64
2023/03/28 00:11:30;;;;;;;8.27;1.90;;;;;;;;;;4935213;28;20210;-66
2023/03/28 00:13:59;;;;;;;8.37;1.80;;;;;;;;;;4934598;28;20225;-66
2023/03/28 00:16:24;;;;;;;7.73;1.80;;;;;;;;;;4923188;28;20218;-67
2023/03/28 00:18:50;;;;;;;10.93;2.10;;;;;;;;;;4960876;28;20221;-66
2023/03/28 00:21:18;;;;;;;9.03;2.10;;;;;;;;;;4943090;28;20272;-66
2023/03/28 00:23:44;;;;;;;6.97;2.00;;;;;;;;;;4961250;28;20577;-66
2023/03/28 00:26:11;;;;;;;9.63;2.13;;;;;;;;;;4959074;28;20224;-66
2023/03/28 00:28:37;;;;;;;8.03;1.90;;;;;;;;;;4941795;28;20698;-66
2023/03/28 00:31:03;;;;;;;9.20;2.10;;;;;;;;;;4943863;28;20262;-66
2023/03/28 00:33:28;;;;;;;9.87;2.20;;;;;;;;;;4935208;28;20804;-66
2023/03/28 00:35:54;;;;;;;10.67;1.87;;;;;;;;;;4934113;28;20309;-67
2023/03/28 00:38:20;;;;;;;8.93;1.97;;;;;;;;;;4938389;28;20229;-66
2023/03/28 00:40:47;;;;;;;11.47;2.23;;;;;;;;;;4945999;28;20230;-67
2023/03/28 00:43:12;;;;;;;8.73;2.30;;;;;;;;;;4944525;28;20683;-66
2023/03/28 00:45:38;;;;;;;8.53;2.30;;;;;;;;;;4928912;28;20233;-66
2023/03/28 00:48:05;;;;;;;10.47;2.10;;;;;;;;;;4944672;28;20555;-66
2023/03/28 00:50:33;;;;;;;9.47;2.40;;;;;;;;;;4946052;28;20249;-66
2023/03/28 00:53:00;;;;;;;12.13;2.30;;;;;;;;;;4963787;28;20217;-66
2023/03/28 00:55:28;;;;;;;9.47;2.27;;;;;;;;;;4939082;28;20216;-66
2023/03/28 00:57:54;;;;;;;5.53;1.70;;;;;;;;;;4956978;28;20596;-67
2023/03/28 01:00:20;;;;;;;9.53;1.90;;;;;;;;;;4957617;28;20240;-66
2023/03/28 01:02:49;;;;;;;10.27;1.83;;;;;;;;;;4963880;28;20220;-66
2023/03/28 01:05:15;;;;;;;11.57;2.00;;;;;;;;;;4939532;28;20207;-66
2023/03/28 01:07:41;;;;;;;6.67;1.90;;;;;;;;;;4928367;28;20210;-66
2023/03/28 01:10:06;;;;;;;10.43;2.27;;;;;;;;;;4927085;28;20847;-66
2023/03/28 01:12:32;;;;;;;9.47;1.87;;;;;;;;;;4945673;28;20237;-66
2023/03/28 01:14:57;;;;;;;10.70;2.20;;;;;;;;;;4928361;28;20254;-66
2023/03/28 01:17:24;;;;;;;10.53;2.87;;;;;;;;;;4938668;28;20207;-66
2023/03/28 01:19:57;;;;;;;10.30;2.10;;;;;;;;;;4937400;28;20472;-66
2023/03/28 01:22:22;;;;;;;9.57;2.03;;;;;;;;;;4962852;28;20253;-66
2023/03/28 01:24:52;;;;;;;8.93;2.20;;;;;;;;;;4971148;28;20697;-66
2023/03/28 01:27:21;;;;;;;11.57;2.70;;;;;;;;;;4962330;28;20313;-66
2023/03/28 01:29:49;;;;;;;9.90;2.40;;;;;;;;;;4941249;28;20202;-66
2023/03/28 01:32:30;;;;;;;12.50;2.50;;;;;;;;;;4972373;28;20230;-66
2023/03/28 01:35:07;;;;;;;8.50;2.23;;;;;;;;;;4973639;28;20217;-66
2023/03/28 01:37:40;;;;;;;12.10;2.70;;;;;;;;;;4955209;28;20571;-66
2023/03/28 01:40:07;;;;;;;8.43;1.90;;;;;;;;;;4955440;28;20282;-66
2023/03/28 01:42:39;;;;;;;9.40;2.40;;;;;;;;;;4973719;28;20218;-66
2023/03/28 01:45:06;;;;;;;10.20;2.60;;;;;;;;;;4954999;28;20308;-66
2023/03/28 01:47:36;;;;;;;8.27;2.27;;;;;;;;;;4956198;28;20678;-66
2023/03/28 01:50:02;;;;;;;13.97;2.87;;;;;;;;;;4972837;28;20433;-65
2023/03/28 01:52:38;;;;;;;14.23;3.23;;;;;;;;;;4972745;28;20769;-66
2023/03/28 01:55:13;;;;;;;10.17;2.70;;;;;;;;;;4955348;28;20680;-65
2023/03/28 01:57:51;;;;;;;7.90;2.40;;;;;;;;;;4973244;28;20213;-66
2023/03/28 02:00:19;;;;;;;10.70;2.30;;;;;;;;;;4954694;28;20300;-66
2023/03/28 02:02:48;;;;;;;7.30;2.43;;;;;;;;;;4955883;28;20321;-66
2023/03/28 02:05:13;;;;;;;10.57;2.40;;;;;;;;;;4964808;28;20221;-66
2023/03/28 02:07:38;;;;;;;8.90;2.60;;;;;;;;;;4936031;29;20218;-66
2023/03/28 02:10:05;;;;;;;7.30;2.20;;;;;;;;;;4935866;28;20305;-66
2023/03/28 02:12:33;;;;;;;12.57;2.93;;;;;;;;;;4936148;29;20245;-66
2023/03/28 02:14:59;;;;;;;9.97;2.50;;;;;;;;;;4936549;29;20211;-66
2023/03/28 02:17:24;;;;;;;11.23;2.70;;;;;;;;;;4936135;28;20207;-66
2023/03/28 02:19:52;;;;;;;8.13;2.70;;;;;;;;;;4952773;28;20253;-66
2023/03/28 02:22:20;;;;;;;7.50;2.67;;;;;;;;;;4951871;28;20562;-66
2023/03/28 02:24:50;;;;;;;8.63;2.20;;;;;;;;;;4942478;29;20214;-66
2023/03/28 02:27:15;;;;;;;12.37;2.60;;;;;;;;;;4958774;28;20229;-66
2023/03/28 02:29:41;;;;;;;7.63;2.60;;;;;;;;;;4955549;28;20203;-66
2023/03/28 02:32:07;;;;;;;8.70;2.50;;;;;;;;;;4956066;28;20616;-66
2023/03/28 02:34:32;;;;;;;10.03;2.53;;;;;;;;;;4961320;28;20214;-66
2023/03/28 02:37:01;;;;;;;8.10;2.77;;;;;;;;;;4953274;29;20214;-66
2023/03/28 02:39:26;;;;;;;11.53;2.80;;;;;;;;;;4945172;28;20245;-66
2023/03/28 02:42:04;;;;;;;9.17;2.60;;;;;;;;;;4971586;28;20218;-66
2023/03/28 02:44:29;;;;;;;7.17;2.30;;;;;;;;;;4972293;28;20220;-66
2023/03/28 02:47:05;;;;;;;10.53;2.57;;;;;;;;;;4972463;28;20222;-66
2023/03/28 02:49:39;;;;;;;8.60;2.40;;;;;;;;;;4971440;28;20677;-66
2023/03/28 02:52:15;;;;;;;9.70;2.30;;;;;;;;;;4954567;28;20303;-66
2023/03/28 02:54:47;;;;;;;8.57;2.37;;;;;;;;;;4954225;28;20213;-66
2023/03/28 02:57:17;;;;;;;11.77;2.40;;;;;;;;;;4971658;28;20213;-66
2023/03/28 02:59:47;;;;;;;9.27;2.70;;;;;;;;;;4954902;28;20222;-66
2023/03/28 03:02:16;;;;;;;10.97;2.53;;;;;;;;;;4970360;28;20225;-66
2023/03/28 03:04:41;;;;;;;9.83;2.60;;;;;;;;;;4972062;28;20213;-66
2023/03/28 03:07:07;;;;;;;8.53;2.30;;;;;;;;;;4971492;28;20202;-66
2023/03/28 03:09:33;;;;;;;7.30;2.10;;;;;;;;;;4971364;28;20212;-66
2023/03/28 03:11:58;;;;;;;10.90;2.43;;;;;;;;;;4971833;28;20210;-66
2023/03/28 03:14:24;;;;;;;7.47;2.20;;;;;;;;;;4971495;28;20213;-66
2023/03/28 03:16:51;;;;;;;10.83;2.33;;;;;;;;;;4971062;28;20845;-66
2023/03/28 03:19:16;;;;;;;11.67;2.60;;;;;;;;;;4971407;28;20225;-66
2023/03/28 03:21:42;;;;;;;10.53;2.97;;;;;;;;;;4971762;28;20225;-66
2023/03/28 03:24:08;;;;;;;9.90;2.83;;;;;;;;;;4970855;28;20735;-66
2023/03/28 03:26:33;;;;;;;10.13;2.40;;;;;;;;;;4966057;28;20257;-66
2023/03/28 03:28:59;;;;;;;7.43;2.23;;;;;;;;;;4952518;29;20655;-66
2023/03/28 03:31:25;;;;;;;9.40;2.40;;;;;;;;;;4950767;29;20810;-66
2023/03/28 03:33:50;;;;;;;11.53;2.63;;;;;;;;;;4954812;28;20214;-66
2023/03/28 03:36:16;;;;;;;9.70;2.53;;;;;;;;;;4971202;28;20210;-66
2023/03/28 03:38:41;;;;;;;13.50;2.60;;;;;;;;;;4967229;28;20475;-66
2023/03/28 03:41:07;;;;;;;9.03;2.60;;;;;;;;;;4951645;29;20230;-66
2023/03/28 03:43:33;;;;;;;11.97;2.67;;;;;;;;;;4952281;29;20575;-66
2023/03/28 03:45:59;;;;;;;8.60;2.40;;;;;;;;;;4951590;29;20229;-66
2023/03/28 03:48:24;;;;;;;7.97;2.27;;;;;;;;;;4951886;29;20733;-66
2023/03/28 03:50:50;;;;;;;11.67;2.07;;;;;;;;;;4951433;29;20234;-66
2023/03/28 03:53:15;;;;;;;12.40;2.93;;;;;;;;;;4951792;29;20286;-66
2023/03/28 03:55:40;;;;;;;9.33;2.07;;;;;;;;;;4952291;29;20591;-66
2023/03/28 03:58:06;;;;;;;9.87;2.83;;;;;;;;;;4950647;29;20526;-65
2023/03/28 04:00:31;;;;;;;7.53;2.10;;;;;;;;;;4944787;28;20241;-66
2023/03/28 04:02:56;;;;;;;11.30;2.43;;;;;;;;;;4942712;28;20222;-66
2023/03/28 04:05:22;;;;;;;10.43;2.60;;;;;;;;;;4941568;28;20269;-66
2023/03/28 04:07:47;;;;;;;9.83;2.40;;;;;;;;;;4942718;28;20214;-66
2023/03/28 04:10:12;;;;;;;11.80;2.70;;;;;;;;;;4942453;28;20214;-66
2023/03/28 04:12:37;;;;;;;8.93;2.93;;;;;;;;;;4941976;28;20297;-66
2023/03/28 04:15:04;;;;;;;13.47;2.80;;;;;;;;;;4945677;28;20219;-65
2023/03/28 04:17:33;;;;;;;10.43;2.47;;;;;;;;;;4940879;28;20621;-66
2023/03/28 04:19:59;;;;;;;8.23;2.53;;;;;;;;;;4938109;28;20616;-66
2023/03/28 04:22:28;;;;;;;13.23;3.03;;;;;;;;;;4951172;28;20214;-66
2023/03/28 04:24:55;;;;;;;11.73;2.50;;;;;;;;;;4944695;28;20678;-66
2023/03/28 04:27:24;;;;;;;10.63;3.03;;;;;;;;;;4951351;28;20721;-66
2023/03/28 04:29:52;;;;;;;8.80;2.73;;;;;;;;;;4946312;28;20325;-67
2023/03/28 04:32:17;;;;;;;10.53;3.27;;;;;;;;;;4945654;28;20245;-66
2023/03/28 04:34:44;;;;;;;11.80;2.63;;;;;;;;;;4953122;28;20679;-66
2023/03/28 04:37:10;;;;;;;10.07;2.90;;;;;;;;;;4945979;28;20300;-66
2023/03/28 04:39:35;;;;;;;10.07;2.47;;;;;;;;;;4941982;28;20278;-66
2023/03/28 04:42:04;;;;;;;10.00;2.87;;;;;;;;;;4956116;28;20224;-65
2023/03/28 04:44:29;;;;;;;9.07;3.23;;;;;;;;;;4940236;28;20293;-66
2023/03/28 04:46:55;;;;;;;10.60;3.97;;;;;;;;;;4961746;28;20681;-66
2023/03/28 04:49:20;;;;;;;9.47;2.70;;;;;;;;;;4963912;28;20218;-66
2023/03/28 04:51:46;;;;;;;10.60;3.00;;;;;;;;;;4964642;28;20210;-66
2023/03/28 04:54:11;;;;;;;13.57;3.20;;;;;;;;;;4963641;28;20222;-66
2023/03/28 04:56:37;;;;;;;12.50;3.90;;;;;;;;;;4964284;28;20213;-66
2023/03/28 04:59:02;;;;;;;13.73;3.47;;;;;;;;;;4963853;28;20221;-66
2023/03/28 05:01:27;;;;;;;11.57;3.20;;;;;;;;;;4961609;28;20284;-66
2023/03/28 05:03:53;;;;;;;7.70;3.13;;;;;;;;;;4957124;28;20725;-66
2023/03/28 05:06:18;;;;;;;7.70;3.00;;;;;;;;;;4957163;28;20217;-66
2023/03/28 05:08:44;;;;;;;10.13;3.40;;;;;;;;;;4950124;28;20363;-66
2023/03/28 05:11:09;;;;;;;10.63;3.63;;;;;;;;;;4945438;28;20273;-66
2023/03/28 05:13:35;;;;;;;8.80;3.30;;;;;;;;;;4945069;28;20646;-66
2023/03/28 05:16:00;;;;;;;12.43;3.97;;;;;;;;;;4944752;28;20762;-66
2023/03/28 05:18:25;;;;;;;12.63;3.50;;;;;;;;;;4944819;28;20261;-66
2023/03/28 05:20:50;;;;;;;11.07;3.30;;;;;;;;;;4963759;28;21034;-66
2023/03/28 05:23:16;;;;;;;11.77;3.90;;;;;;;;;;4962917;28;20206;-66
2023/03/28 05:25:41;;;;;;;11.90;4.00;;;;;;;;;;4959116;28;20238;-66
2023/03/28 05:28:06;;;;;;;10.07;3.70;;;;;;;;;;4969878;28;20209;-64
2023/03/28 05:30:32;;;;;;;13.63;4.37;;;;;;;;;;4962715;28;20344;-65
2023/03/28 05:32:58;;;;;;;12.47;4.00;;;;;;;;;;4959941;28;20242;-65
2023/03/28 05:35:23;;;;;;;14.48;5.05;;;;;;;;;;4968773;28;20478;-65
2023/03/28 05:37:48;;;;;;;9.47;4.13;;;;;;;;;;4973063;28;20223;-63
2023/03/28 05:40:14;;;;;;;14.70;4.60;;;;;;;;;;4956851;28;20487;-64
2023/03/28 05:42:39;;;;;;;13.30;4.50;;;;;;;;;;4961588;28;20233;-65
2023/03/28 05:45:05;;;;;;;10.60;4.27;;;;;;;;;;4945886;28;20211;-64
2023/03/28 05:47:31;;;;;;;12.60;4.70;;;;;;;;;;4962453;28;20233;-65
2023/03/28 05:49:56;;;;;;;13.83;4.70;;;;;;;;;;4963979;28;20563;-65
2023/03/28 05:52:21;;;;;;;18.87;9.53;;;;;;;;;;4961398;28;20242;-65
2023/03/28 05:54:46;;;;;;;38.43;26.37;;;;;;;;;;4963376;28;20205;-65
2023/03/28 05:57:12;;;;;;;13.07;6.10;;;;;;;;;;4963557;28;20232;-65
2023/03/28 05:59:39;;;;;;;11.30;4.43;;;;;;;;;;4961282;28;20261;-64
2023/03/28 06:02:05;;;;;;;11.27;4.47;;;;;;;;;;4963077;28;20297;-64
2023/03/28 06:04:31;;;;;;;10.50;4.97;;;;;;;;;;4945757;28;20302;-64
2023/03/28 06:06:56;;;;;;;10.60;4.50;;;;;;;;;;4962265;28;20723;-65
2023/03/28 06:09:22;;;;;;;10.07;4.73;;;;;;;;;;4962412;28;20686;-65
2023/03/28 06:11:47;;;;;;;12.80;5.33;;;;;;;;;;4962224;28;21041;-65
2023/03/28 06:14:12;;;;;;;12.43;5.03;;;;;;;;;;4963119;28;20646;-65
2023/03/28 06:16:37;;;;;;;13.17;5.23;;;;;;;;;;4969539;28;20418;-68
2023/03/28 06:19:03;;;;;;;16.27;6.60;;;;;;;;;;4960054;28;21033;-66
2023/03/28 06:21:28;;;;;;;13.43;5.07;;;;;;;;;;4953500;28;20226;-65
2023/03/28 06:23:53;;;;;;;11.53;4.93;;;;;;;;;;4953548;29;20222;-66
2023/03/28 06:26:19;;;;;;;11.63;6.40;;;;;;;;;;4952482;28;20214;-65
2023/03/28 06:28:44;;;;;;;13.23;6.13;;;;;;;;;;4956595;28;20214;-65
2023/03/28 06:31:10;;;;;;;10.87;4.80;;;;;;;;;;4954630;28;20231;-65
2023/03/28 06:33:37;;;;;;;10.50;4.10;;;;;;;;;;4952822;29;20722;-66
2023/03/28 06:36:03;;;;;;;11.73;4.40;;;;;;;;;;4967309;28;20300;-65
2023/03/28 06:38:28;;;;;;;11.30;4.07;;;;;;;;;;4969387;28;20779;-65
2023/03/28 06:40:53;;;;;;;10.35;4.30;;;;;;;;;;4958266;28;20229;-65
2023/03/28 06:43:18;;;;;;;12.20;4.70;;;;;;;;;;4962949;28;20224;-65
2023/03/28 06:45:44;;;;;;;13.85;4.57;;;;;;;;;;4955648;28;20210;-66
2023/03/28 06:48:09;;;;;;;12.25;4.07;;;;;;;;;;4934562;29;20694;-66
2023/03/28 06:50:35;;;;;;;10.27;4.07;;;;;;;;;;4953241;29;20222;-65
2023/03/28 06:53:00;;;;;;;7.20;3.42;;;;;;;;;;4952757;29;20679;-65
2023/03/28 06:55:25;;;;;;;12.23;3.40;;;;;;;;;;4951802;29;20238;-65
2023/03/28 06:57:50;;;;;;;10.70;3.58;;;;;;;;;;4952905;29;20214;-66
2023/03/28 07:00:16;;;;;;;11.38;3.65;;;;;;;;;;4952113;29;20242;-65
2023/03/28 07:02:42;;;;;;;9.98;3.72;;;;;;;;;;4952213;29;20244;-66
2023/03/28 07:05:07;;;;;;;13.20;3.95;;;;;;;;;;4952473;29;20202;-66
2023/03/28 07:07:32;;;;;;;10.35;3.42;;;;;;;;;;4952995;29;20218;-66
2023/03/28 07:09:57;;;;;;;8.50;3.65;;;;;;;;;;4952007;29;20218;-66
2023/03/28 07:12:23;;;;;;;10.10;3.80;;;;;;;;;;4952229;29;20215;-66
2023/03/28 07:14:48;;;;;;;10.93;3.38;;;;;;;;;;4951887;29;20237;-65
2023/03/28 07:17:13;;;;;;;11.63;3.65;;;;;;;;;;4952153;29;20717;-65
2023/03/28 07:19:39;;;;;;;9.85;3.70;;;;;;;;;;4952563;29;20214;-65
2023/03/28 07:22:04;;;;;;;15.05;3.78;;;;;;;;;;4951546;29;20713;-65
2023/03/28 07:24:29;;;;;;;12.50;3.80;;;;;;;;;;4952549;29;20317;-65
2023/03/28 07:26:55;;;;;;;15.98;3.80;;;;;;;;;;4960524;28;20626;-65
2023/03/28 07:29:20;;;;;;;10.82;3.75;;;;;;;;;;4969920;28;20351;-65
2023/03/28 07:31:45;;;;;;;9.73;3.50;;;;;;;;;;4952177;29;20272;-65
2023/03/28 07:34:10;;;;;;;9.70;2.92;;;;;;;;;;4951879;29;20218;-65
2023/03/28 07:36:37;;;;;;;12.90;3.25;;;;;;;;;;4951821;29;20211;-65
2023/03/28 07:39:03;;;;;;;10.95;4.70;;;;;;;;;;4958106;28;20209;-65
2023/03/28 07:41:29;;;;;;;18.65;10.25;;;;;;;;;;4971446;28;20225;-65
2023/03/28 07:43:54;;;;;;;20.33;7.30;;;;;;;;;;4970820;28;20576;-66
2023/03/28 07:46:20;;;;;;;14.60;5.40;;;;;;;;;;4971341;28;20349;-66
2023/03/28 07:48:45;;;;;;;10.68;3.58;;;;;;;;;;4971194;28;20594;-66
2023/03/28 07:51:11;;;;;;;14.65;3.50;;;;;;;;;;4970387;28;20217;-66
2023/03/28 07:53:36;;;;;;;11.50;3.45;;;;;;;;;;4971601;28;20281;-66
2023/03/28 07:56:02;;;;;;;9.23;3.40;;;;;;;;;;4971172;28;20268;-65
2023/03/28 07:58:27;;;;;;;13.95;4.22;;;;;;;;;;4970817;28;20556;-66
2023/03/28 08:00:52;;;;;;;14.13;3.20;;;;;;;;;;4971155;28;20245;-66
2023/03/28 08:03:18;;;;;;;12.25;3.40;;;;;;;;;;4971033;28;20228;-66
2023/03/28 08:05:48;;;;;;;10.30;3.20;;;;;;;;;;4970878;28;20221;-66
2023/03/28 08:08:13;;;;;;;10.60;3.20;;;;;;;;;;4970983;28;20237;-66
2023/03/28 08:10:38;;;;;;;9.63;2.65;;;;;;;;;;4971277;28;20685;-67
2023/03/28 08:13:04;;;;;;;9.32;3.10;;;;;;;;;;4970326;28;20221;-66
2023/03/28 08:15:29;;;;;;;10.35;3.47;;;;;;;;;;4971240;28;20708;-66
2023/03/28 08:17:54;;;;;;;7.13;2.58;;;;;;;;;;4971074;28;20216;-66
2023/03/28 08:20:20;;;;;;;8.23;2.90;;;;;;;;;;4969894;28;20225;-66
2023/03/28 08:22:45;;;;;;;12.52;3.80;;;;;;;;;;4971288;28;20216;-66
2023/03/28 08:25:10;;;;;;;8.95;2.67;;;;;;;;;;4970097;28;20220;-66
2023/03/28 08:27:36;;;;;;;9.30;2.55;;;;;;;;;;4957737;28;20222;-66
2023/03/28 08:30:01;;;;;;;12.27;2.97;;;;;;;;;;4951709;29;20206;-65
2023/03/28 08:32:26;;;;;;;8.63;2.40;;;;;;;;;;4950926;29;20242;-66
2023/03/28 08:34:51;;;;;;;6.75;3.03;;;;;;;;;;4951762;29;20280;-66
2023/03/28 08:37:17;;;;;;;7.63;2.25;;;;;;;;;;4955316;28;20222;-67
2023/03/28 08:39:42;;;;;;;7.75;2.10;;;;;;;;;;4958493;28;20210;-67
2023/03/28 08:42:17;;;;;;;13.80;3.50;;;;;;;;;;4951409;29;20215;-66
2023/03/28 08:44:45;;;;;;;8.10;2.17;;;;;;;;;;4951744;29;20317;-67
2023/03/28 08:47:12;;;;;;;7.18;2.22;;;;;;;;;;4950483;29;20674;-66
2023/03/28 08:49:44;;;;;;;8.77;2.50;;;;;;;;;;4934520;29;20222;-67
2023/03/28 08:52:10;;;;;;;8.10;2.30;;;;;;;;;;4951196;29;20226;-66
2023/03/28 08:54:40;;;;;;;9.68;3.22;;;;;;;;;;4950958;29;20207;-67
2023/03/28 08:57:05;;;;;;;7.65;2.88;;;;;;;;;;4934133;29;20214;-66
2023/03/28 08:59:38;;;;;;;9.82;2.55;;;;;;;;;;4935297;29;20830;-67
2023/03/28 09:02:12;;;;;;;7.97;2.30;;;;;;;;;;4936044;29;20313;-68
2023/03/28 09:04:37;;;;;;;7.97;1.90;;;;;;;;;;4937788;29;20214;-70
2023/03/28 09:07:06;;;;;;;7.53;2.50;;;;;;;;;;4956744;28;20199;-69
2023/03/28 09:09:33;;;;;;;10.50;2.15;;;;;;;;;;4942125;29;20218;-67
2023/03/28 09:12:12;;;;;;;6.43;2.38;;;;;;;;;;4954885;29;20206;-67
2023/03/28 09:14:40;;;;;;;9.38;2.85;;;;;;;;;;4953885;29;20214;-68
2023/03/28 09:17:15;;;;;;;11.35;4.10;;;;;;;;;;4949906;28;20202;-65
2023/03/28 09:19:53;;;;;;;10.20;3.58;;;;;;;;;;4953437;29;20245;-66
2023/03/28 09:22:20;;;;;;;12.00;4.75;;;;;;;;;;4952328;29;20242;-66
2023/03/28 09:24:55;;;;;;;8.43;2.08;;;;;;;;;;4953817;28;20293;-67
2023/03/28 09:27:24;;;;;;;10.73;2.38;;;;;;;;;;4954333;28;20218;-66
2023/03/28 09:29:49;;;;;;;5.25;1.90;;;;;;;;;;4955862;28;20666;-66
2023/03/28 09:32:18;;;;;;;9.02;1.80;;;;;;;;;;4952565;28;20288;-66
2023/03/28 09:34:46;;;;;;;7.03;1.90;;;;;;;;;;4953128;29;20639;-66
2023/03/28 09:37:29;;;;;;;6.15;2.10;;;;;;;;;;4951031;28;20278;-67
2023/03/28 09:39:55;;;;;;;7.43;1.90;;;;;;;;;;4941404;28;20258;-67
2023/03/28 09:42:27;;;;;;;6.53;2.30;;;;;;;;;;4933628;29;20242;-66
2023/03/28 09:44:59;;;;;;;8.45;2.28;;;;;;;;;;4935058;29;20234;-66
2023/03/28 09:47:25;;;;;;;10.38;2.47;;;;;;;;;;4933275;29;20218;-66
2023/03/28 09:49:50;;;;;;;7.68;2.00;;;;;;;;;;4934175;29;20215;-67
2023/03/28 09:52:17;;;;;;;7.68;2.28;;;;;;;;;;4934841;29;20211;-66
2023/03/28 09:54:42;;;;;;;7.80;2.45;;;;;;;;;;4935098;29;20214;-67
2023/03/28 09:57:08;;;;;;;6.80;2.53;;;;;;;;;;4933949;29;20219;-66
2023/03/28 09:59:33;;;;;;;9.88;2.13;;;;;;;;;;4935088;29;20239;-66
2023/03/28 10:02:01;;;;;;;6.22;2.25;;;;;;;;;;4934561;29;20278;-66
2023/03/28 10:04:26;;;;;;;6.63;2.08;;;;;;;;;;4932652;29;20539;-66
2023/03/28 10:06:52;;;;;;;7.32;1.90;;;;;;;;;;4934729;29;20207;-66
2023/03/28 10:09:18;;;;;;;8.48;3.03;;;;;;;;;;4934411;29;20675;-67
2023/03/28 10:11:53;;;;;;;8.65;2.55;;;;;;;;;;4934046;29;20303;-66
2023/03/28 10:14:31;;;;;;;4.35;1.67;;;;;;;;;;4933181;29;20698;-69
2023/03/28 10:16:59;;;;;;;9.82;2.85;;;;;;;;;;4934535;29;20698;-64
2023/03/28 10:19:25;;;;;;;6.72;2.22;;;;;;;;;;4933337;29;20227;-65
2023/03/28 10:21:50;;;;;;;8.82;2.40;;;;;;;;;;4934203;29;20579;-66
2023/03/28 10:24:15;;;;;;;8.45;1.98;;;;;;;;;;4917173;29;20233;-66
2023/03/28 10:26:41;;;;;;;8.18;2.13;;;;;;;;;;4939884;28;20298;-66
2023/03/28 10:29:07;;;;;;;11.63;2.13;;;;;;;;;;4953209;28;20250;-65
2023/03/28 10:31:33;;;;;;;5.40;2.13;;;;;;;;;;4961212;28;20272;-64
2023/03/28 10:33:58;;;;;;;5.10;2.22;;;;;;;;;;4954510;28;20225;-65
2023/03/28 10:36:30;;;;;;;10.20;2.20;;;;;;;;;;4972178;28;20276;-65
2023/03/28 10:38:55;;;;;;;7.70;2.50;;;;;;;;;;4965185;28;20213;-65
2023/03/28 10:41:21;;;;;;;6.80;1.90;;;;;;;;;;4935727;29;20573;-65
2023/03/28 10:43:46;;;;;;;6.07;2.05;;;;;;;;;;4953326;29;20222;-65
2023/03/28 10:46:14;;;;;;;6.25;2.00;;;;;;;;;;4951745;29;20206;-64
2023/03/28 10:48:40;;;;;;;8.73;2.45;;;;;;;;;;4936279;29;20225;-65
2023/03/28 10:51:07;;;;;;;6.13;2.25;;;;;;;;;;4952337;29;20211;-65
2023/03/28 10:53:46;;;;;;;7.45;2.50;;;;;;;;;;4935659;29;20211;-65
2023/03/28 10:56:27;;;;;;;7.10;2.58;;;;;;;;;;4952604;29;20576;-65
2023/03/28 10:58:59;;;;;;;8.68;2.70;;;;;;;;;;4935878;29;20218;-65
2023/03/28 11:01:31;;;;;;;8.07;3.05;;;;;;;;;;4951408;29;20226;-65
2023/03/28 11:04:00;;;;;;;8.25;2.83;;;;;;;;;;4935850;29;20229;-65
2023/03/28 11:06:29;;;;;;;7.53;2.60;;;;;;;;;;4935234;29;20646;-65
2023/03/28 11:08:54;;;;;;;6.78;2.60;;;;;;;;;;4935049;29;20689;-65
2023/03/28 11:11:26;;;;;;;9.70;2.53;;;;;;;;;;4952452;29;20230;-65
2023/03/28 11:13:54;;;;;;;7.50;2.97;;;;;;;;;;4952728;29;20297;-65
2023/03/28 11:16:24;;;;;;;7.82;2.80;;;;;;;;;;4934651;29;20623;-65
2023/03/28 11:18:54;;;;;;;6.10;2.17;;;;;;;;;;4935659;29;20218;-65
2023/03/28 11:21:28;;;;;;;9.90;2.63;;;;;;;;;;4951272;29;20314;-65
2023/03/28 11:23:58;;;;;;;6.90;2.33;;;;;;;;;;4934996;29;20210;-64
2023/03/28 11:26:25;;;;;;;7.13;2.22;;;;;;;;;;4938795;28;20206;-64
2023/03/28 11:28:59;;;;;;;9.25;2.40;;;;;;;;;;4967176;28;20222;-65
2023/03/28 11:31:28;;;;;;;7.78;2.80;;;;;;;;;;4951378;28;20234;-65
2023/03/28 11:33:54;;;;;;;7.93;2.70;;;;;;;;;;4952520;29;20210;-66
2023/03/28 11:36:22;;;;;;;7.50;2.42;;;;;;;;;;4951102;29;20737;-65
2023/03/28 11:38:49;;;;;;;7.78;3.03;;;;;;;;;;4954407;28;20416;-65
2023/03/28 11:41:16;;;;;;;9.20;2.60;;;;;;;;;;4948094;28;20222;-66
2023/03/28 11:43:50;;;;;;;8.48;2.30;;;;;;;;;;4943747;28;20213;-66
2023/03/28 11:46:17;;;;;;;7.70;2.28;;;;;;;;;;4969831;28;20206;-66
2023/03/28 11:48:46;;;;;;;6.15;2.50;;;;;;;;;;4954315;28;20245;-66
2023/03/28 11:51:17;;;;;;;8.88;2.70;;;;;;;;;;4953013;28;20225;-65
2023/03/28 11:53:43;;;;;;;8.02;2.40;;;;;;;;;;4955129;28;20293;-65
2023/03/28 11:56:12;;;;;;;10.13;2.50;;;;;;;;;;4951094;29;20303;-65
2023/03/28 11:58:39;;;;;;;7.47;2.17;;;;;;;;;;4952154;29;20241;-65
2023/03/28 12:01:08;;;;;;;9.70;2.40;;;;;;;;;;4934012;29;20261;-64
2023/03/28 12:03:50;;;;;;;8.48;2.25;;;;;;;;;;4951378;29;20249;-66
2023/03/28 12:06:19;;;;;;;4.88;1.92;;;;;;;;;;4951398;29;20303;-65
2023/03/28 12:08:46;;;;;;;8.88;2.22;;;;;;;;;;4934882;29;20298;-65
2023/03/28 12:11:14;;;;;;;7.15;2.47;;;;;;;;;;4950942;29;20737;-65
2023/03/28 12:13:46;;;;;;;7.00;2.30;;;;;;;;;;4934993;29;20245;-65
2023/03/28 12:16:12;;;;;;;5.70;2.13;;;;;;;;;;4951311;28;20318;-65
2023/03/28 12:18:43;;;;;;;5.57;1.90;;;;;;;;;;4951096;29;20214;-65
2023/03/28 12:21:15;;;;;;;6.80;1.77;;;;;;;;;;4934256;29;20338;-65
2023/03/28 12:23:44;;;;;;;6.32;2.00;;;;;;;;;;4934692;29;20211;-65
2023/03/28 12:26:17;;;;;;;7.78;2.50;;;;;;;;;;4952668;28;20710;-65
2023/03/28 12:28:43;;;;;;;9.02;2.10;;;;;;;;;;4954164;28;20736;-65
2023/03/28 12:31:15;;;;;;;8.25;1.95;;;;;;;;;;4953963;28;20238;-65
2023/03/28 12:33:47;;;;;;;6.85;1.90;;;;;;;;;;4951354;28;20281;-65
2023/03/28 12:36:16;;;;;;;10.68;2.03;;;;;;;;;;4937817;29;20213;-65
2023/03/28 12:38:46;;;;;;;5.38;2.05;;;;;;;;;;4940830;28;20213;-65
2023/03/28 12:41:14;;;;;;;9.32;2.17;;;;;;;;;;4957074;28;20222;-65
2023/03/28 12:43:45;;;;;;;8.82;1.90;;;;;;;;;;4940790;29;20238;-65
2023/03/28 12:46:11;;;;;;;5.90;1.70;;;;;;;;;;4937020;28;20265;-65
2023/03/28 12:48:38;;;;;;;6.80;2.30;;;;;;;;;;4938348;29;20216;-65
2023/03/28 12:51:05;;;;;;;5.65;2.08;;;;;;;;;;4954888;28;20210;-65
2023/03/28 12:53:31;;;;;;;5.50;1.92;;;;;;;;;;4954400;28;20666;-65
2023/03/28 12:55:56;;;;;;;7.00;2.00;;;;;;;;;;4955028;28;20213;-65
2023/03/28 12:58:34;;;;;;;7.55;1.83;;;;;;;;;;4937613;28;20234;-65
2023/03/28 13:01:03;;;;;;;6.10;1.60;;;;;;;;;;4954221;28;20214;-65
2023/03/28 13:03:29;;;;;;;6.47;2.15;;;;;;;;;;4937731;29;20218;-65
2023/03/28 13:05:56;;;;;;;5.30;1.80;;;;;;;;;;4955055;28;20227;-65
2023/03/28 13:08:23;;;;;;;8.18;2.30;;;;;;;;;;4936898;28;20707;-65
2023/03/28 13:10:58;;;;;;;7.47;2.00;;;;;;;;;;4937754;29;20218;-65
2023/03/28 13:13:27;;;;;;;6.45;2.33;;;;;;;;;;4954477;29;20305;-65
2023/03/28 13:15:54;;;;;;;6.65;2.03;;;;;;;;;;4947179;28;20562;-65
2023/03/28 13:18:20;;;;;;;6.93;2.67;;;;;;;;;;4973764;28;20682;-65
2023/03/28 13:20:46;;;;;;;6.72;2.35;;;;;;;;;;4973309;28;20306;-65
2023/03/28 13:23:12;;;;;;;7.13;2.20;;;;;;;;;;4956198;28;20206;-63
2023/03/28 13:25:37;;;;;;;6.78;2.35;;;;;;;;;;4948151;29;20285;-65
2023/03/28 13:28:09;;;;;;;9.77;2.47;;;;;;;;;;4970513;28;20236;-65
2023/03/28 13:30:34;;;;;;;6.75;2.67;;;;;;;;;;4962927;28;20654;-65
2023/03/28 13:33:02;;;;;;;8.50;2.88;;;;;;;;;;4954492;29;20309;-66
2023/03/28 13:35:37;;;;;;;11.60;3.30;;;;;;;;;;4936335;29;20230;-65
2023/03/28 13:38:21;;;;;;;8.50;2.67;;;;;;;;;;4953745;29;20257;-65
2023/03/28 13:40:50;;;;;;;8.35;2.80;;;;;;;;;;4953979;29;20581;-65
2023/03/28 13:43:25;;;;;;;6.10;2.90;;;;;;;;;;4953224;29;20305;-64
2023/03/28 13:45:53;;;;;;;7.15;2.60;;;;;;;;;;4953670;28;20214;-64
2023/03/28 13:48:18;;;;;;;5.63;2.63;;;;;;;;;;4953527;28;20666;-64
2023/03/28 13:50:44;;;;;;;7.68;2.97;;;;;;;;;;4953333;29;20245;-65
2023/03/28 13:53:09;;;;;;;8.32;3.00;;;;;;;;;;4953546;29;20273;-64
2023/03/28 13:55:35;;;;;;;7.22;2.97;;;;;;;;;;4953846;28;20690;-65
2023/03/28 13:58:00;;;;;;;8.25;2.97;;;;;;;;;;4960870;28;20769;-64
2023/03/28 14:00:26;;;;;;;6.13;3.20;;;;;;;;;;4957105;28;20316;-65
2023/03/28 14:02:52;;;;;;;11.05;3.20;;;;;;;;;;4941569;28;20222;-65
2023/03/28 14:05:18;;;;;;;7.32;3.45;;;;;;;;;;4962832;28;21114;-65
2023/03/28 14:07:44;;;;;;;7.93;3.22;;;;;;;;;;4966471;28;20312;-65
2023/03/28 14:10:27;;;;;;;9.02;3.50;;;;;;;;;;4965752;28;20624;-64
2023/03/28 14:12:52;;;;;;;8.82;3.08;;;;;;;;;;4953239;28;20230;-65
2023/03/28 14:15:21;;;;;;;9.40;2.92;;;;;;;;;;4955465;28;20731;-65
2023/03/28 14:17:46;;;;;;;6.72;3.28;;;;;;;;;;4949210;28;20859;-65
2023/03/28 14:20:13;;;;;;;6.38;2.90;;;;;;;;;;4964443;28;20226;-65
2023/03/28 14:22:39;;;;;;;7.30;2.92;;;;;;;;;;4941299;28;20218;-65
2023/03/28 14:25:06;;;;;;;7.55;3.10;;;;;;;;;;4958589;28;20284;-65
2023/03/28 14:27:35;;;;;;;7.93;3.20;;;;;;;;;;4931977;28;20547;-65
2023/03/28 14:30:00;;;;;;;6.97;3.08;;;;;;;;;;4947590;28;20346;-63
2023/03/28 14:32:30;;;;;;;8.25;3.25;;;;;;;;;;4955936;28;20316;-65
2023/03/28 14:34:56;;;;;;;9.15;5.28;;;;;;;;;;4966210;28;20582;-65
2023/03/28 14:37:21;;;;;;;10.73;4.15;;;;;;;;;;4944754;28;20218;-65
2023/03/28 14:39:47;;;;;;;9.95;3.10;;;;;;;;;;4946984;28;20218;-65